Time;durP1;ratioP1;P1;durP2;ratioP2;P2;SDS_P1;SDS_P2;PMS_P1;PMS_P2;Temp;Humidity;BMP_temperature;BMP_pressure;BME280_temperature;BME280_humidity;BME280_pressure;Samples;Min_cycle;Max_cycle;Signal;HPM_P1;HPM_P2
2021/04/13 00:02:28;;;;;;;;;;;18.60;47.10;;;;;;5005285;28;19932;-81
2021/04/13 00:04:59;;;;;;;;;;;18.60;47.20;;;;;;5007423;28;19925;-82
2021/04/13 00:07:27;;;;;;;;;;;18.50;47.20;;;;;;5006431;28;19964;-83
2021/04/13 00:09:54;;;;;;;;;;;18.50;47.20;;;;;;5009405;28;19983;-82
2021/04/13 00:12:22;;;;;;;;;;;18.50;47.20;;;;;;5017637;28;19936;-83
2021/04/13 00:14:50;;;;;;;;;;;18.50;47.20;;;;;;5008285;28;20420;-83
2021/04/13 00:17:21;;;;;;;;;;;18.50;47.20;;;;;;5006312;28;20823;-83
2021/04/13 00:20:00;;;;;;;;;;;18.50;47.20;;;;;;5003543;28;20126;-83
2021/04/13 00:22:26;;;;;;;;;;;18.40;47.30;;;;;;4997143;28;19966;-82
2021/04/13 00:24:53;;;;;;;;;;;18.40;47.30;;;;;;5008161;28;19933;-83
2021/04/13 00:27:22;;;;;;;;;;;18.40;47.30;;;;;;5009593;28;20369;-84
2021/04/13 00:29:48;;;;;;;;;;;18.40;47.30;;;;;;5007236;28;19929;-83
2021/04/13 00:32:14;;;;;;;;;;;18.40;47.40;;;;;;4996277;28;20405;-82
2021/04/13 00:34:55;;;;;;;;;;;18.40;47.40;;;;;;5007500;28;19925;-81
2021/04/13 00:37:29;;;;;;;;;;;18.40;47.40;;;;;;5009709;28;20474;-83
2021/04/13 00:40:12;;;;;;;;;;;18.40;47.40;;;;;;5027988;28;19935;-84
2021/04/13 00:42:39;;;;;;;;;;;18.40;47.50;;;;;;5017522;28;20113;-84
2021/04/13 00:45:16;;;;;;;;;;;18.30;47.40;;;;;;5028892;28;19920;-84
2021/04/13 00:47:44;;;;;;;;;;;18.30;47.50;;;;;;5030125;28;19933;-85
2021/04/13 00:50:25;;;;;;;;;;;18.20;47.50;;;;;;5002166;28;20376;-85
2021/04/13 00:52:54;;;;;;;;;;;18.30;47.50;;;;;;5000906;28;20560;-85
2021/04/13 00:55:21;;;;;;;;;;;18.20;47.50;;;;;;5007415;28;20762;-82
2021/04/13 00:58:04;;;;;;;;;;;18.20;47.50;;;;;;4997467;28;20321;-85
2021/04/13 01:00:33;;;;;;;;;;;18.20;47.50;;;;;;4983600;28;20620;-83
2021/04/13 01:03:00;;;;;;;;;;;18.20;47.50;;;;;;5009940;28;20230;-85
2021/04/13 01:05:35;;;;;;;;;;;18.20;47.60;;;;;;5007429;28;19925;-82
2021/04/13 01:08:13;;;;;;;;;;;18.20;47.60;;;;;;5006675;28;19929;-85
2021/04/13 01:10:39;;;;;;;;;;;18.20;47.70;;;;;;4991502;28;20382;-83
2021/04/13 01:13:16;;;;;;;;;;;18.20;47.60;;;;;;5005797;28;19952;-84
2021/04/13 01:15:45;;;;;;;;;;;18.10;47.60;;;;;;5001191;28;19933;-83
2021/04/13 01:18:19;;;;;;;;;;;18.10;47.70;;;;;;5018720;28;20381;-84
2021/04/13 01:20:53;;;;;;;;;;;18.10;47.70;;;;;;5013025;28;19933;-82
2021/04/13 01:23:27;;;;;;;;;;;18.10;47.70;;;;;;4998055;28;21314;-83
2021/04/13 01:25:58;;;;;;;;;;;18.10;47.70;;;;;;5002637;28;20977;-83
2021/04/13 01:28:32;;;;;;;;;;;18.10;47.70;;;;;;5006343;28;19936;-83
2021/04/13 01:31:42;;;;;;;;;;;18.10;47.70;;;;;;5004059;28;19937;-83
2021/04/13 01:34:24;;;;;;;;;;;18.00;47.70;;;;;;4994323;28;20709;-83
2021/04/13 01:37:07;;;;;;;;;;;18.00;47.70;;;;;;5010719;28;20009;-82
2021/04/13 01:39:43;;;;;;;;;;;18.00;47.70;;;;;;4994259;28;20011;-84
2021/04/13 01:42:10;;;;;;;;;;;18.00;47.70;;;;;;5010443;28;20425;-84
2021/04/13 01:44:48;;;;;;;;;;;18.00;47.80;;;;;;5011634;28;19926;-84
2021/04/13 01:47:20;;;;;;;;;;;18.00;47.80;;;;;;5006388;28;19933;-84
2021/04/13 01:49:49;;;;;;;;;;;17.90;47.70;;;;;;5005834;28;20381;-84
2021/04/13 01:52:23;;;;;;;;;;;17.90;47.80;;;;;;5005615;28;19925;-84
2021/04/13 01:54:49;;;;;;;;;;;17.90;47.80;;;;;;5010477;28;19926;-84
2021/04/13 01:57:26;;;;;;;;;;;17.90;47.80;;;;;;4990538;28;19926;-84
2021/04/13 01:59:54;;;;;;;;;;;17.90;47.90;;;;;;5007655;28;21757;-84
2021/04/13 02:02:26;;;;;;;;;;;17.90;47.80;;;;;;4994120;28;19949;-83
2021/04/13 02:04:56;;;;;;;;;;;17.90;48.50;;;;;;5004097;28;19926;-83
2021/04/13 02:07:41;;;;;;;;;;;17.90;47.90;;;;;;5000283;28;19940;-83
2021/04/13 02:10:34;;;;;;;;;;;17.80;47.80;;;;;;5011329;28;19925;-83
2021/04/13 02:13:03;;;;;;;;;;;17.80;47.80;;;;;;4998457;28;19933;-84
2021/04/13 02:15:48;;;;;;;;;;;17.90;47.90;;;;;;5003252;28;20400;-84
2021/04/13 02:18:19;;;;;;;;;;;17.80;47.90;;;;;;5002037;28;19979;-84
2021/04/13 02:20:47;;;;;;;;;;;17.80;47.90;;;;;;5006281;28;19926;-84
2021/04/13 02:23:14;;;;;;;;;;;17.80;47.90;;;;;;5005837;28;19929;-84
2021/04/13 02:25:42;;;;;;;;;;;17.80;47.90;;;;;;5007539;28;19933;-84
2021/04/13 02:28:14;;;;;;;;;;;17.80;47.90;;;;;;5005250;28;19925;-84
2021/04/13 02:30:42;;;;;;;;;;;17.70;47.90;;;;;;5004677;28;20409;-83
2021/04/13 02:33:18;;;;;;;;;;;17.70;47.90;;;;;;5003358;28;19929;-84
2021/04/13 02:35:45;;;;;;;;;;;17.70;47.90;;;;;;5006071;28;19972;-84
2021/04/13 02:38:13;;;;;;;;;;;17.70;47.90;;;;;;5004216;28;19926;-84
2021/04/13 02:40:49;;;;;;;;;;;17.70;47.90;;;;;;5000462;28;19966;-84
2021/04/13 02:43:24;;;;;;;;;;;17.70;48.60;;;;;;5007356;28;20373;-84
2021/04/13 02:45:53;;;;;;;;;;;17.70;48.00;;;;;;5008624;28;20581;-83
2021/04/13 02:48:33;;;;;;;;;;;17.70;48.00;;;;;;4998881;28;20189;-83
2021/04/13 02:51:02;;;;;;;;;;;17.70;48.00;;;;;;4999751;28;21421;-83
2021/04/13 02:53:33;;;;;;;;;;;17.70;48.00;;;;;;5007552;28;19933;-84
2021/04/13 02:56:03;;;;;;;;;;;17.60;48.00;;;;;;5006735;28;19933;-84
2021/04/13 02:58:37;;;;;;;;;;;17.60;48.10;;;;;;4993418;28;19925;-84
2021/04/13 03:01:03;;;;;;;;;;;17.60;48.00;;;;;;5006346;28;20324;-85
2021/04/13 03:03:39;;;;;;;;;;;17.60;48.10;;;;;;5010160;28;19953;-84
2021/04/13 03:06:05;;;;;;;;;;;17.60;48.10;;;;;;5008965;28;19926;-84
2021/04/13 03:08:35;;;;;;;;;;;17.60;48.10;;;;;;5003748;28;19948;-85
2021/04/13 03:11:08;;;;;;;;;;;17.60;48.10;;;;;;5007040;28;19930;-84
2021/04/13 03:13:40;;;;;;;;;;;17.60;48.10;;;;;;5023138;28;19933;-84
2021/04/13 03:16:06;;;;;;;;;;;17.60;48.10;;;;;;4999104;28;19926;-84
2021/04/13 03:18:44;;;;;;;;;;;17.50;48.10;;;;;;5005116;28;19926;-84
2021/04/13 03:21:17;;;;;;;;;;;17.60;48.20;;;;;;5007335;28;19926;-84
2021/04/13 03:23:44;;;;;;;;;;;17.50;48.10;;;;;;5002815;28;20424;-83
2021/04/13 03:26:16;;;;;;;;;;;17.50;48.10;;;;;;5006910;28;19925;-84
2021/04/13 03:28:45;;;;;;;;;;;17.50;48.10;;;;;;5004333;28;19963;-83
2021/04/13 03:31:12;;;;;;;;;;;17.50;48.10;;;;;;5019801;28;20307;-83
2021/04/13 03:33:39;;;;;;;;;;;17.50;48.20;;;;;;5008242;28;19932;-83
2021/04/13 03:36:11;;;;;;;;;;;17.50;48.20;;;;;;5001508;28;19934;-83
2021/04/13 03:38:38;;;;;;;;;;;17.50;48.80;;;;;;5004357;28;19926;-83
2021/04/13 03:41:12;;;;;;;;;;;17.50;48.20;;;;;;5005807;28;20152;-83
2021/04/13 03:43:39;;;;;;;;;;;17.50;48.20;;;;;;5009130;28;19922;-84
2021/04/13 03:46:08;;;;;;;;;;;17.50;48.20;;;;;;5005873;28;19941;-84
2021/04/13 03:48:38;;;;;;;;;;;17.40;48.20;;;;;;5024771;28;20231;-83
2021/04/13 03:51:20;;;;;;;;;;;17.40;48.20;;;;;;5002099;28;19967;-83
2021/04/13 03:53:46;;;;;;;;;;;17.40;48.20;;;;;;5006507;28;19936;-83
2021/04/13 03:56:21;;;;;;;;;;;17.40;48.20;;;;;;4998205;28;19987;-83
2021/04/13 03:58:56;;;;;;;;;;;17.40;48.20;;;;;;5010271;28;20406;-83
2021/04/13 04:01:25;;;;;;;;;;;17.40;48.30;;;;;;5002587;28;20215;-83
2021/04/13 04:03:57;;;;;;;;;;;17.40;48.30;;;;;;5010352;28;19925;-83
2021/04/13 04:06:36;;;;;;;;;;;17.40;48.30;;;;;;5007234;28;19926;-83
2021/04/13 04:09:12;;;;;;;;;;;17.40;48.30;;;;;;5008503;28;19932;-83
2021/04/13 04:11:39;;;;;;;;;;;17.30;48.80;;;;;;5005393;28;19926;-83
2021/04/13 04:14:12;;;;;;;;;;;17.30;48.20;;;;;;5001326;28;19925;-82
2021/04/13 04:16:38;;;;;;;;;;;17.30;48.20;;;;;;5006674;28;20301;-83
2021/04/13 04:19:16;;;;;;;;;;;17.30;48.20;;;;;;5001236;28;19939;-83
2021/04/13 04:21:44;;;;;;;;;;;17.30;48.20;;;;;;4999187;28;20357;-83
2021/04/13 04:24:16;;;;;;;;;;;17.30;48.10;;;;;;5008462;28;19926;-83
2021/04/13 04:26:50;;;;;;;;;;;17.30;48.20;;;;;;4997559;28;19934;-84
2021/04/13 04:29:18;;;;;;;;;;;17.30;48.20;;;;;;5003468;28;19926;-84
2021/04/13 04:31:45;;;;;;;;;;;17.20;48.10;;;;;;5002198;28;19921;-83
2021/04/13 04:34:15;;;;;;;;;;;17.20;48.10;;;;;;5003930;28;19984;-84
2021/04/13 04:36:43;;;;;;;;;;;17.30;48.20;;;;;;5008070;28;19933;-83
2021/04/13 04:39:28;;;;;;;;;;;17.20;48.00;;;;;;5006877;28;19933;-84
2021/04/13 04:42:05;;;;;;;;;;;17.20;48.00;;;;;;4999797;28;20253;-93
2021/04/13 04:44:31;;;;;;;;;;;17.20;48.10;;;;;;5008793;28;19929;-92
2021/04/13 04:46:59;;;;;;;;;;;17.30;48.20;;;;;;5014380;28;19929;-85
2021/04/13 04:49:26;;;;;;;;;;;17.20;48.10;;;;;;5001956;28;19928;-86
2021/04/13 04:51:54;;;;;;;;;;;17.20;48.10;;;;;;4996660;28;19933;-85
2021/04/13 04:54:23;;;;;;;;;;;17.20;48.20;;;;;;5012186;28;19933;-86
2021/04/13 04:56:49;;;;;;;;;;;17.20;48.20;;;;;;5007699;28;19966;-88
2021/04/13 04:59:15;;;;;;;;;;;17.20;48.90;;;;;;4999543;28;19932;-89
2021/04/13 05:01:42;;;;;;;;;;;17.20;48.30;;;;;;5011654;28;19936;-93
2021/04/13 05:04:08;;;;;;;;;;;17.20;48.30;;;;;;5009621;28;19932;-92
2021/04/13 05:06:34;;;;;;;;;;;17.20;48.30;;;;;;5014156;28;19930;-90
2021/04/13 05:09:01;;;;;;;;;;;17.10;48.20;;;;;;5013349;28;19926;-88
2021/04/13 05:11:27;;;;;;;;;;;17.10;48.20;;;;;;5014301;28;19932;-91
2021/04/13 05:13:53;;;;;;;;;;;17.20;48.20;;;;;;5005994;28;19992;-86
2021/04/13 05:16:20;;;;;;;;;;;17.10;48.00;;;;;;5009345;28;19940;-87
2021/04/13 05:18:46;;;;;;;;;;;17.20;48.10;;;;;;5026316;28;19956;-86
2021/04/13 05:21:13;;;;;;;;;;;17.10;48.10;;;;;;5015220;28;19926;-86
2021/04/13 05:23:39;;;;;;;;;;;17.10;48.10;;;;;;5019313;28;20365;-87
2021/04/13 05:26:06;;;;;;;;;;;17.20;48.10;;;;;;5009574;28;19930;-89
2021/04/13 05:28:32;;;;;;;;;;;17.10;48.00;;;;;;5008024;28;19926;-87
2021/04/13 05:34:22;;;;;;;;;;;17.10;47.90;;;;;;5386097;23;19930;-92
2021/04/13 05:36:50;;;;;;;;;;;17.10;48.00;;;;;;4989404;28;19941;-93
2021/04/13 05:39:16;;;;;;;;;;;17.10;47.90;;;;;;4994040;28;19936;-87
2021/04/13 05:41:42;;;;;;;;;;;17.10;47.90;;;;;;4984636;28;19941;-88
2021/04/13 05:44:10;;;;;;;;;;;17.10;48.00;;;;;;5007492;28;19976;-87
2021/04/13 05:46:37;;;;;;;;;;;17.10;48.00;;;;;;4990005;28;19926;-87
2021/04/13 05:49:15;;;;;;;;;;;17.10;48.00;;;;;;4991365;28;20328;-92
2021/04/13 05:51:41;;;;;;;;;;;17.10;48.00;;;;;;4973054;28;20306;-91
2021/04/13 05:54:07;;;;;;;;;;;17.10;48.00;;;;;;4987650;28;19926;-89
2021/04/13 05:56:36;;;;;;;;;;;17.10;48.00;;;;;;4982995;28;20385;-89
2021/04/13 05:59:16;;;;;;;;;;;17.10;48.30;;;;;;4989834;28;19926;-92
2021/04/13 06:01:48;;;;;;;;;;;17.10;50.30;;;;;;4986320;28;19940;-93
2021/04/13 06:10:58;;;;;;;;;;;17.40;50.30;;;;;;5680713;22;19929;-91
2021/04/13 06:13:25;;;;;;;;;;;17.50;50.00;;;;;;4967478;28;19926;-88
2021/04/13 06:15:52;;;;;;;;;;;17.50;49.90;;;;;;4979370;28;20155;-90
2021/04/13 06:18:18;;;;;;;;;;;17.60;50.40;;;;;;4970510;28;20013;-90
2021/04/13 06:20:45;;;;;;;;;;;17.60;51.90;;;;;;4984519;28;19964;-95
2021/04/13 06:23:11;;;;;;;;;;;17.70;51.80;;;;;;4984351;28;19934;-93
2021/04/13 06:25:38;;;;;;;;;;;17.60;51.40;;;;;;4985086;28;19926;-84
2021/04/13 06:28:04;;;;;;;;;;;17.70;51.20;;;;;;4973927;28;19993;-96
2021/04/13 06:30:33;;;;;;;;;;;17.70;50.90;;;;;;4980179;28;20024;-95
2021/04/13 06:33:00;;;;;;;;;;;17.70;50.80;;;;;;4988305;28;19934;-90
2021/04/13 06:35:28;;;;;;;;;;;17.70;50.50;;;;;;4985692;28;19933;-89
2021/04/13 06:37:55;;;;;;;;;;;17.80;50.20;;;;;;4984116;23;19926;-90
2021/04/13 06:40:24;;;;;;;;;;;17.90;50.00;;;;;;4955488;28;20221;-92
2021/04/13 06:43:09;;;;;;;;;;;17.90;49.60;;;;;;4963512;28;20819;-84
2021/04/13 06:45:57;;;;;;;;;;;17.90;49.60;;;;;;4929906;28;21867;-86
2021/04/13 06:48:43;;;;;;;;;;;18.00;49.60;;;;;;4966547;28;19926;-93
2021/04/13 06:51:14;;;;;;;;;;;18.00;49.20;;;;;;4945853;28;19930;-95
2021/04/13 06:53:46;;;;;;;;;;;18.00;49.20;;;;;;4965930;28;19930;-90
2021/04/13 06:56:18;;;;;;;;;;;18.00;49.20;;;;;;4979968;28;19937;-91
2021/04/13 06:58:50;;;;;;;;;;;18.10;49.10;;;;;;4968207;28;19942;-86
2021/04/13 07:01:38;;;;;;;;;;;18.10;48.90;;;;;;4965413;28;19930;-90
2021/04/13 07:04:25;;;;;;;;;;;18.10;49.10;;;;;;4952438;28;20306;-91
2021/04/13 07:06:58;;;;;;;;;;;18.20;49.90;;;;;;4969745;28;19929;-90
2021/04/13 07:09:55;;;;;;;;;;;18.30;51.10;;;;;;4958707;28;20538;-93
2021/04/13 07:12:25;;;;;;;;;;;18.30;52.20;;;;;;4956514;28;19957;-95
2021/04/13 07:15:10;;;;;;;;;;;18.40;52.70;;;;;;4973639;28;19933;-87
2021/04/13 07:17:39;;;;;;;;;;;18.40;52.40;;;;;;4956957;28;20065;-86
2021/04/13 07:20:08;;;;;;;;;;;18.40;52.40;;;;;;4985521;28;19926;-84
2021/04/13 07:22:38;;;;;;;;;;;18.40;52.10;;;;;;4970765;28;19937;-84
2021/04/13 07:25:13;;;;;;;;;;;18.30;52.00;;;;;;4972163;28;19927;-85
2021/04/13 07:27:53;;;;;;;;;;;18.30;52.30;;;;;;4965938;28;20252;-86
2021/04/13 07:30:25;;;;;;;;;;;18.30;52.10;;;;;;4971235;28;20012;-91
2021/04/13 07:32:53;;;;;;;;;;;18.30;52.20;;;;;;4966818;28;20034;-89
2021/04/13 07:35:20;;;;;;;;;;;18.30;52.20;;;;;;4970925;28;19942;-91
2021/04/13 07:37:47;;;;;;;;;;;18.20;52.00;;;;;;4974386;28;19975;-89
2021/04/13 07:40:22;;;;;;;;;;;18.30;51.90;;;;;;4972984;28;19937;-84
2021/04/13 07:43:15;;;;;;;;;;;18.20;51.60;;;;;;4966305;28;20409;-87
2021/04/13 07:45:41;;;;;;;;;;;18.70;51.50;;;;;;4944638;28;20306;-83
2021/04/13 07:48:10;;;;;;;;;;;19.90;49.00;;;;;;4968761;28;19929;-83
2021/04/13 07:50:52;;;;;;;;;;;20.50;47.30;;;;;;4967868;28;19926;-84
2021/04/13 07:53:34;;;;;;;;;;;20.90;46.30;;;;;;4962820;28;20012;-82
2021/04/13 07:56:07;;;;;;;;;;;21.40;45.60;;;;;;4955017;28;21411;-85
2021/04/13 07:58:56;;;;;;;;;;;21.60;44.90;;;;;;4960790;28;19965;-86
2021/04/13 08:01:22;;;;;;;;;;;21.90;44.50;;;;;;4977932;28;20338;-82
2021/04/13 08:03:51;;;;;;;;;;;22.10;44.00;;;;;;4965190;28;19961;-85
2021/04/13 08:06:26;;;;;;;;;;;22.20;43.80;;;;;;4963723;28;19934;-91
2021/04/13 08:09:12;;;;;;;;;;;22.40;43.50;;;;;;4938106;28;19966;-83
2021/04/13 08:11:38;;;;;;;;;;;22.50;43.30;;;;;;4955237;28;20302;-81
2021/04/13 08:14:18;;;;;;;;;;;22.70;42.90;;;;;;4962425;28;19926;-85
2021/04/13 08:16:45;;;;;;;;;;;22.80;42.80;;;;;;4961359;28;19926;-83
2021/04/13 08:19:23;;;;;;;;;;;22.90;42.60;;;;;;4965748;28;19926;-82
2021/04/13 08:22:02;;;;;;;;;;;23.10;42.20;;;;;;4959389;28;19981;-84
2021/04/13 08:24:39;;;;;;;;;;;23.20;41.90;;;;;;4964677;28;20067;-83
2021/04/13 08:27:22;;;;;;;;;;;22.60;41.50;;;;;;4956620;28;20617;-82
2021/04/13 08:29:54;;;;;;;;;;;22.10;43.40;;;;;;4970287;28;19994;-82
2021/04/13 08:36:15;;;;;;;;;;;22.30;45.50;;;;;;5357162;23;20345;-87
2021/04/13 08:38:44;;;;;;;;;;;23.00;44.10;;;;;;4997651;28;20024;-84
2021/04/13 08:41:14;;;;;;;;;;;23.40;43.30;;;;;;5048251;28;20300;-90
2021/04/13 08:43:48;;;;;;;;;;;23.50;42.70;;;;;;5042961;28;19936;-90
2021/04/13 08:46:16;;;;;;;;;;;23.60;42.30;;;;;;5047906;28;19925;-85
2021/04/13 08:49:10;;;;;;;;;;;23.90;42.30;;;;;;5030904;28;19924;-85
2021/04/13 08:51:42;;;;;;;;;;;24.00;42.00;;;;;;4998110;28;20316;-85
2021/04/13 08:54:19;;;;;;;;;;;24.20;41.30;;;;;;5022925;28;19973;-84
2021/04/13 08:57:01;;;;;;;;;;;24.30;41.00;;;;;;5024285;28;19957;-86
2021/04/13 08:59:52;;;;;;;;;;;24.50;40.90;;;;;;5028204;28;20390;-85
2021/04/13 09:02:34;;;;;;;;;;;24.60;40.70;;;;;;5008471;28;20041;-85
2021/04/13 09:05:03;;;;;;;;;;;24.80;40.90;;;;;;5014140;28;20455;-88
2021/04/13 09:07:35;;;;;;;;;;;24.80;40.80;;;;;;5027593;28;21215;-93
2021/04/13 09:10:16;;;;;;;;;;;24.90;40.90;;;;;;5008651;28;20251;-84
2021/04/13 09:12:52;;;;;;;;;;;25.00;40.60;;;;;;4990535;28;19925;-88
2021/04/13 09:15:25;;;;;;;;;;;25.10;40.60;;;;;;5011433;28;19936;-85
2021/04/13 09:18:10;;;;;;;;;;;25.20;40.50;;;;;;5019799;28;20417;-85
2021/04/13 09:20:47;;;;;;;;;;;25.30;40.50;;;;;;5006190;28;20490;-84
2021/04/13 09:23:19;;;;;;;;;;;25.40;40.50;;;;;;5024700;28;19932;-89
2021/04/13 09:25:52;;;;;;;;;;;25.50;41.10;;;;;;5016608;28;19925;-85
2021/04/13 09:28:19;;;;;;;;;;;25.60;40.40;;;;;;5026983;28;19955;-86
2021/04/13 09:31:08;;;;;;;;;;;25.60;40.30;;;;;;5027718;28;19964;-84
2021/04/13 09:33:36;;;;;;;;;;;25.70;40.40;;;;;;5013868;28;20273;-84
2021/04/13 09:36:24;;;;;;;;;;;25.70;40.40;;;;;;5012804;28;19948;-83
2021/04/13 09:39:03;;;;;;;;;;;25.80;40.50;;;;;;5017668;28;19933;-84
2021/04/13 09:41:48;;;;;;;;;;;25.90;40.50;;;;;;5022677;28;19940;-91
2021/04/13 09:44:17;;;;;;;;;;;26.10;40.40;;;;;;5017167;28;19929;-89
2021/04/13 09:47:08;;;;;;;;;;;26.10;40.10;;;;;;5010108;28;19969;-85
2021/04/13 09:49:41;;;;;;;;;;;26.20;40.20;;;;;;4992111;28;20123;-85
2021/04/13 09:52:19;;;;;;;;;;;26.20;40.10;;;;;;5021547;28;19933;-89
2021/04/13 09:54:52;;;;;;;;;;;26.40;40.20;;;;;;5024228;28;19925;-86
2021/04/13 09:57:46;;;;;;;;;;;26.40;39.90;;;;;;5007987;28;19941;-84
2021/04/13 10:00:38;;;;;;;;;;;26.40;40.00;;;;;;4996804;28;21376;-86
2021/04/13 10:03:24;;;;;;;;;;;26.50;40.30;;;;;;4975128;28;19932;-86
2021/04/13 10:05:52;;;;;;;;;;;26.50;39.90;;;;;;5012544;28;19935;-87
2021/04/13 10:08:58;;;;;;;;;;;26.60;39.70;;;;;;5014737;28;19929;-86
2021/04/13 10:11:33;;;;;;;;;;;26.60;39.60;;;;;;4962003;28;19933;-84
2021/04/13 10:14:19;;;;;;;;;;;24.30;42.90;;;;;;5014305;28;19940;-83
2021/04/13 10:17:01;;;;;;;;;;;23.30;46.60;;;;;;5014742;28;20408;-83
2021/04/13 10:19:42;;;;;;;;;;;22.80;47.90;;;;;;5029439;28;21389;-84
2021/04/13 10:22:11;;;;;;;;;;;22.50;49.20;;;;;;5011894;28;20905;-84
2021/04/13 10:24:41;;;;;;;;;;;22.40;49.80;;;;;;5016629;28;20329;-82
2021/04/13 10:27:29;;;;;;;;;;;22.20;50.40;;;;;;4995052;28;19940;-81
2021/04/13 10:30:15;;;;;;;;;;;22.30;50.50;;;;;;5019501;28;19936;-82
2021/04/13 10:33:04;;;;;;;;;;;22.10;50.80;;;;;;4991084;28;20991;-82
2021/04/13 10:35:33;;;;;;;;;;;21.90;51.00;;;;;;4973808;28;20519;-82
2021/04/13 10:38:19;;;;;;;;;;;21.80;51.50;;;;;;5000049;28;19925;-88
2021/04/13 10:40:56;;;;;;;;;;;21.70;52.10;;;;;;5026252;28;20575;-90
2021/04/13 10:43:43;;;;;;;;;;;21.70;52.80;;;;;;5012282;28;19932;-89
2021/04/13 10:46:28;;;;;;;;;;;21.70;52.50;;;;;;4984658;28;20170;-90
2021/04/13 10:48:58;;;;;;;;;;;21.70;52.70;;;;;;5030666;28;19917;-90
2021/04/13 10:51:29;;;;;;;;;;;21.70;52.80;;;;;;5003086;28;20021;-87
2021/04/13 10:54:07;;;;;;;;;;;21.60;52.70;;;;;;5013737;28;20294;-89
2021/04/13 10:56:52;;;;;;;;;;;21.60;52.80;;;;;;5026871;28;19948;-93
2021/04/13 10:59:21;;;;;;;;;;;21.60;52.90;;;;;;5010541;28;19947;-93
2021/04/13 11:02:06;;;;;;;;;;;21.60;52.90;;;;;;5006458;28;19955;-88
2021/04/13 11:04:51;;;;;;;;;;;21.60;52.90;;;;;;5011141;28;20601;-95
2021/04/13 11:07:36;;;;;;;;;;;21.50;53.10;;;;;;5017593;28;19929;-93
2021/04/13 11:10:12;;;;;;;;;;;21.60;53.00;;;;;;4997503;28;19951;-94
2021/04/13 11:13:15;;;;;;;;;;;21.40;53.60;;;;;;4964667;28;19963;-82
2021/04/13 11:15:52;;;;;;;;;;;21.50;52.40;;;;;;5015254;28;20694;-79
2021/04/13 11:18:31;;;;;;;;;;;21.50;51.90;;;;;;5031720;28;20234;-80
2021/04/13 11:21:26;;;;;;;;;;;21.40;51.10;;;;;;4992382;28;20725;-80
2021/04/13 11:24:02;;;;;;;;;;;21.30;51.50;;;;;;5015876;28;21792;-79
2021/04/13 11:26:45;;;;;;;;;;;21.30;51.20;;;;;;5019247;28;19940;-80
2021/04/13 11:29:32;;;;;;;;;;;21.30;51.70;;;;;;5020418;28;19925;-80
2021/04/13 11:32:08;;;;;;;;;;;21.20;52.10;;;;;;5001856;28;20116;-80
2021/04/13 11:34:35;;;;;;;;;;;21.10;52.70;;;;;;5019757;28;19929;-80
2021/04/13 11:37:19;;;;;;;;;;;21.00;52.90;;;;;;5016188;28;19929;-79
2021/04/13 11:40:00;;;;;;;;;;;21.00;53.10;;;;;;5018215;28;20949;-80
2021/04/13 11:42:28;;;;;;;;;;;21.00;52.20;;;;;;5010923;28;20632;-80
2021/04/13 11:45:12;;;;;;;;;;;20.90;52.30;;;;;;5021283;28;19929;-80
2021/04/13 11:48:02;;;;;;;;;;;20.90;52.00;;;;;;5015606;28;19925;-80
2021/04/13 11:50:30;;;;;;;;;;;20.80;52.20;;;;;;4989691;28;20572;-80
2021/04/13 11:53:05;;;;;;;;;;;20.90;52.50;;;;;;5026152;28;20307;-80
2021/04/13 11:55:46;;;;;;;;;;;20.80;53.00;;;;;;5020446;28;19979;-80
2021/04/13 11:58:17;;;;;;;;;;;20.90;52.90;;;;;;5020269;28;20706;-80
2021/04/13 12:00:44;;;;;;;;;;;20.80;53.20;;;;;;5020225;28;19929;-80
2021/04/13 12:03:17;;;;;;;;;;;20.80;53.50;;;;;;5015576;28;19925;-80
2021/04/13 12:05:49;;;;;;;;;;;20.80;52.50;;;;;;5014657;28;21547;-79
2021/04/13 12:20:35;;;;;;;;;;;20.90;55.50;;;;;;4974216;28;22381;-90
2021/04/13 12:23:21;;;;;;;;;;;20.90;55.40;;;;;;4953551;28;22111;-82
2021/04/13 12:25:50;;;;;;;;;;;21.00;53.90;;;;;;4997068;28;20715;-81
2021/04/13 12:28:38;;;;;;;;;;;20.90;54.00;;;;;;4997825;28;21332;-85
2021/04/13 12:31:04;;;;;;;;;;;20.90;54.10;;;;;;4970207;28;21004;-90
2021/04/13 12:33:32;;;;;;;;;;;21.10;55.60;;;;;;4955320;28;19937;-87
2021/04/13 12:35:58;;;;;;;;;;;21.30;53.60;;;;;;4991454;28;19941;-91
2021/04/13 12:38:56;;;;;;;;;;;21.50;53.70;;;;;;4993131;28;19929;-86
2021/04/13 12:41:30;;;;;;;;;;;21.70;52.90;;;;;;4995228;28;19934;-86
2021/04/13 12:44:00;;;;;;;;;;;21.80;52.50;;;;;;4997475;28;19933;-85
2021/04/13 12:46:29;;;;;;;;;;;21.90;52.00;;;;;;4983591;28;20398;-88
2021/04/13 12:48:57;;;;;;;;;;;22.00;52.70;;;;;;4997591;28;20443;-86
2021/04/13 12:51:28;;;;;;;;;;;22.00;51.60;;;;;;4989730;28;20288;-87
2021/04/13 12:54:08;;;;;;;;;;;22.10;51.40;;;;;;4982376;28;19930;-86
2021/04/13 12:56:47;;;;;;;;;;;22.10;51.90;;;;;;4969467;28;19926;-91
2021/04/13 12:59:14;;;;;;;;;;;22.20;52.40;;;;;;4992386;28;19925;-90
2021/04/13 13:01:43;;;;;;;;;;;22.20;51.90;;;;;;5009320;28;19957;-89
2021/04/13 13:04:13;;;;;;;;;;;22.30;51.50;;;;;;4981545;28;20293;-85
2021/04/13 13:27:14;;;;;;;;;;;22.50;49.10;;;;;;4961315;28;20390;-88
2021/04/13 13:29:41;;;;;;;;;;;22.60;49.60;;;;;;4951052;28;19941;-96
2021/04/13 13:32:11;;;;;;;;;;;22.60;49.00;;;;;;4955595;28;20362;-91
2021/04/13 13:34:38;;;;;;;;;;;22.60;49.30;;;;;;4961350;22;19930;-87
2021/04/13 13:37:06;;;;;;;;;;;22.70;49.40;;;;;;4981549;28;19926;-85
2021/04/13 13:40:08;;;;;;;;;;;22.70;49.20;;;;;;4961617;28;19932;-89
2021/04/13 13:42:37;;;;;;;;;;;22.70;49.20;;;;;;4986429;28;19930;-94
2021/04/13 13:45:04;;;;;;;;;;;22.80;48.60;;;;;;4985859;28;20453;-87
2021/04/13 13:47:40;;;;;;;;;;;22.80;47.70;;;;;;4976420;28;19933;-94
2021/04/13 13:50:22;;;;;;;;;;;22.80;50.40;;;;;;4951240;28;19942;-90
2021/04/13 13:52:50;;;;;;;;;;;22.80;48.60;;;;;;4960901;28;20676;-85
2021/04/13 13:55:16;;;;;;;;;;;22.90;48.40;;;;;;4966967;28;20030;-91
2021/04/13 13:58:14;;;;;;;;;;;22.80;47.20;;;;;;4957538;28;19926;-89
2021/04/13 14:00:51;;;;;;;;;;;22.90;48.30;;;;;;4936648;28;19934;-88
2021/04/13 14:03:25;;;;;;;;;;;22.90;47.30;;;;;;4948974;28;19932;-87
2021/04/13 14:06:12;;;;;;;;;;;22.90;48.00;;;;;;4950480;28;20086;-82
2021/04/13 14:08:42;;;;;;;;;;;22.90;47.90;;;;;;4954792;28;19934;-80
2021/04/13 14:11:15;;;;;;;;;;;22.40;47.70;;;;;;4970122;28;19942;-80
2021/04/13 14:13:53;;;;;;;;;;;22.20;48.50;;;;;;4970192;28;20449;-80
2021/04/13 14:16:25;;;;;;;;;;;22.10;49.20;;;;;;4979063;28;20338;-80
2021/04/13 14:18:58;;;;;;;;;;;22.00;48.70;;;;;;4982958;28;19965;-79
2021/04/13 14:21:38;;;;;;;;;;;22.00;48.20;;;;;;4981208;28;19934;-86
2021/04/13 14:24:24;;;;;;;;;;;22.10;48.90;;;;;;4979100;28;19926;-84
2021/04/13 14:26:52;;;;;;;;;;;22.20;48.80;;;;;;4965805;28;20230;-85
2021/04/13 14:29:21;;;;;;;;;;;22.30;47.90;;;;;;4969522;28;19934;-84
2021/04/13 14:31:48;;;;;;;;;;;22.40;47.30;;;;;;4943172;28;19933;-84
2021/04/13 14:34:15;;;;;;;;;;;22.40;47.70;;;;;;4960435;28;20205;-85
2021/04/13 14:36:41;;;;;;;;;;;22.50;47.80;;;;;;4945824;28;19943;-91
2021/04/13 14:39:17;;;;;;;;;;;22.50;47.70;;;;;;4928768;28;19990;-93
2021/04/13 14:41:44;;;;;;;;;;;22.50;47.20;;;;;;4943344;28;19969;-88
2021/04/13 14:44:11;;;;;;;;;;;22.60;47.40;;;;;;4960722;28;20433;-83
2021/04/13 14:46:38;;;;;;;;;;;22.50;47.20;;;;;;4955520;28;19937;-86
2021/04/13 14:49:06;;;;;;;;;;;22.60;47.90;;;;;;4961542;28;19937;-88
2021/04/13 14:51:32;;;;;;;;;;;22.60;46.80;;;;;;4959887;28;19926;-88
2021/04/13 14:57:20;;;;;;;;;;;22.60;47.10;;;;;;6026624;23;19921;-89
2021/04/13 14:59:50;;;;;;;;;;;22.70;46.90;;;;;;4997202;28;19936;-87
2021/04/13 15:02:16;;;;;;;;;;;22.60;46.40;;;;;;4963552;28;19941;-86
2021/04/13 15:04:42;;;;;;;;;;;22.60;47.40;;;;;;4997601;28;19925;-88
2021/04/13 15:07:09;;;;;;;;;;;22.60;46.80;;;;;;5003250;28;19939;-90
2021/04/13 15:09:42;;;;;;;;;;;22.60;47.30;;;;;;4982037;28;20426;-91
2021/04/13 15:12:11;;;;;;;;;;;22.70;47.30;;;;;;5002276;28;19948;-88
2021/04/13 15:14:47;;;;;;;;;;;22.70;47.90;;;;;;4979653;28;21538;-84
2021/04/13 15:17:18;;;;;;;;;;;22.70;47.50;;;;;;5004792;28;19937;-87
2021/04/13 15:19:45;;;;;;;;;;;22.70;48.10;;;;;;5000678;28;20012;-86
2021/04/13 15:22:11;;;;;;;;;;;22.70;48.10;;;;;;5002435;28;19926;-87
2021/04/13 15:24:37;;;;;;;;;;;22.70;47.20;;;;;;5000558;28;19987;-87
2021/04/13 15:27:04;;;;;;;;;;;22.70;47.50;;;;;;4985296;28;19925;-84
2021/04/13 15:32:17;;;;;;;;;;;22.80;47.60;;;;;;5237200;23;20016;-85
2021/04/13 15:34:55;;;;;;;;;;;22.70;47.30;;;;;;5002257;28;19929;-86
2021/04/13 15:37:33;;;;;;;;;;;22.70;47.70;;;;;;4984581;28;20374;-89
2021/04/13 15:40:05;;;;;;;;;;;22.70;47.60;;;;;;5001577;28;19936;-88
2021/04/13 15:42:34;;;;;;;;;;;22.80;47.80;;;;;;5011754;28;19925;-86
2021/04/13 15:45:04;;;;;;;;;;;22.40;47.10;;;;;;5006365;28;19932;-87
2021/04/13 15:47:31;;;;;;;;;;;22.20;48.00;;;;;;4990038;28;19925;-87